sensor_id;sensor_type;location;lat;lon;timestamp;pressure;altitude;pressure_sealevel;temperature;humidity
5814;BME280;2933;52.302;8.134;2024-03-29T00:00:36;98611.22;;;7.67;66.18
5814;BME280;2933;52.302;8.134;2024-03-29T00:05:37;98602.88;;;7.68;66.55
5814;BME280;2933;52.302;8.134;2024-03-29T00:10:38;98615.44;;;7.68;66.34
5814;BME280;2933;52.302;8.134;2024-03-29T00:15:40;98609.81;;;7.69;66.20
5814;BME280;2933;52.302;8.134;2024-03-29T00:20:41;98594.53;;;7.70;65.63
5814;BME280;2933;52.302;8.134;2024-03-29T00:25:42;98590.47;;;7.64;66.02
5814;BME280;2933;52.302;8.134;2024-03-29T00:30:44;98603.38;;;7.62;66.13
5814;BME280;2933;52.302;8.134;2024-03-29T00:35:45;98603.38;;;7.62;66.20
5814;BME280;2933;52.302;8.134;2024-03-29T00:40:45;98602.59;;;7.61;66.19
5814;BME280;2933;52.302;8.134;2024-03-29T00:45:48;98599.59;;;7.63;65.82
5814;BME280;2933;52.302;8.134;2024-03-29T00:50:49;98594.13;;;7.59;65.97
5814;BME280;2933;52.302;8.134;2024-03-29T00:55:50;98593.34;;;7.59;65.62
5814;BME280;2933;52.302;8.134;2024-03-29T01:00:52;98594.16;;;7.51;66.16
5814;BME280;2933;52.302;8.134;2024-03-29T01:05:53;98596.41;;;7.40;66.53
5814;BME280;2933;52.302;8.134;2024-03-29T01:10:54;98600.31;;;7.43;66.08
5814;BME280;2933;52.302;8.134;2024-03-29T01:15:56;98599.19;;;7.44;66.05
5814;BME280;2933;52.302;8.134;2024-03-29T01:20:56;98606.16;;;7.36;66.44
5814;BME280;2933;52.302;8.134;2024-03-29T01:25:57;98611.63;;;7.40;65.44
5814;BME280;2933;52.302;8.134;2024-03-29T01:30:59;98618.72;;;7.36;66.35
5814;BME280;2933;52.302;8.134;2024-03-29T01:36:00;98620.75;;;7.39;65.83
5814;BME280;2933;52.302;8.134;2024-03-29T01:41:01;98637.72;;;7.43;65.65
5814;BME280;2933;52.302;8.134;2024-03-29T01:46:03;98646.06;;;7.41;65.59
5814;BME280;2933;52.302;8.134;2024-03-29T01:51:06;98635.03;;;7.43;65.01
5814;BME280;2933;52.302;8.134;2024-03-29T01:56:08;98638.53;;;7.35;65.69
5814;BME280;2933;52.302;8.134;2024-03-29T02:01:12;98622.94;;;7.45;64.87
5814;BME280;2933;52.302;8.134;2024-03-29T02:06:15;98611.56;;;7.57;64.10
5814;BME280;2933;52.302;8.134;2024-03-29T02:11:17;98605.94;;;7.50;64.81
5814;BME280;2933;52.302;8.134;2024-03-29T02:16:20;98619.75;;;7.52;64.49
5814;BME280;2933;52.302;8.134;2024-03-29T02:21:22;98612.72;;;7.47;64.61
5814;BME280;2933;52.302;8.134;2024-03-29T02:26:25;98611.59;;;7.48;64.95
5814;BME280;2933;52.302;8.134;2024-03-29T02:31:31;98595.34;;;7.33;65.73
5814;BME280;2933;52.302;8.134;2024-03-29T02:36:33;98583.38;;;7.39;65.49
5814;BME280;2933;52.302;8.134;2024-03-29T02:41:36;98565.75;;;7.38;65.53
5814;BME280;2933;52.302;8.134;2024-03-29T02:46:38;98564.06;;;7.33;65.60
5814;BME280;2933;52.302;8.134;2024-03-29T02:51:40;98576.31;;;7.34;65.60
5814;BME280;2933;52.302;8.134;2024-03-29T02:56:43;98574.44;;;7.26;65.93
5814;BME280;2933;52.302;8.134;2024-03-29T03:01:45;98582.00;;;7.24;66.56
5814;BME280;2933;52.302;8.134;2024-03-29T03:06:46;98598.38;;;7.52;64.71
5814;BME280;2933;52.302;8.134;2024-03-29T03:11:49;98605.56;;;7.60;64.12
5814;BME280;2933;52.302;8.134;2024-03-29T03:16:51;98593.78;;;7.69;63.41
5814;BME280;2933;52.302;8.134;2024-03-29T03:21:53;98597.19;;;7.70;64.29
5814;BME280;2933;52.302;8.134;2024-03-29T03:26:56;98578.97;;;7.72;63.25
5814;BME280;2933;52.302;8.134;2024-03-29T03:31:57;98574.88;;;7.74;63.37
5814;BME280;2933;52.302;8.134;2024-03-29T03:36:59;98580.00;;;7.79;63.22
5814;BME280;2933;52.302;8.134;2024-03-29T03:42:03;98564.91;;;7.83;63.12
5814;BME280;2933;52.302;8.134;2024-03-29T03:47:04;98567.81;;;7.70;63.84
5814;BME280;2933;52.302;8.134;2024-03-29T03:52:06;98567.69;;;7.66;63.99
5814;BME280;2933;52.302;8.134;2024-03-29T03:57:09;98584.13;;;7.77;63.42
5814;BME280;2933;52.302;8.134;2024-03-29T04:02:11;98592.41;;;7.84;63.33
5814;BME280;2933;52.302;8.134;2024-03-29T04:07:13;98590.41;;;7.81;63.11
5814;BME280;2933;52.302;8.134;2024-03-29T04:12:16;98581.94;;;7.79;63.27
5814;BME280;2933;52.302;8.134;2024-03-29T04:17:17;98572.16;;;7.83;62.55
5814;BME280;2933;52.302;8.134;2024-03-29T04:22:19;98576.06;;;7.85;62.72
5814;BME280;2933;52.302;8.134;2024-03-29T04:27:22;98569.09;;;7.93;62.16
5814;BME280;2933;52.302;8.134;2024-03-29T04:32:24;98581.19;;;7.99;62.14
5814;BME280;2933;52.302;8.134;2024-03-29T04:37:26;98587.06;;;8.13;61.64
5814;BME280;2933;52.302;8.134;2024-03-29T04:42:29;98601.31;;;8.17;62.04
5814;BME280;2933;52.302;8.134;2024-03-29T04:47:30;98608.53;;;8.25;61.95
5814;BME280;2933;52.302;8.134;2024-03-29T04:52:32;98620.47;;;8.28;63.56
5814;BME280;2933;52.302;8.134;2024-03-29T04:57:35;98637.94;;;8.25;64.70
5814;BME280;2933;52.302;8.134;2024-03-29T05:02:37;98661.25;;;8.16;66.52
5814;BME280;2933;52.302;8.134;2024-03-29T05:07:39;98674.06;;;8.02;69.10
5814;BME280;2933;52.302;8.134;2024-03-29T05:12:43;98678.53;;;7.90;71.01
5814;BME280;2933;52.302;8.134;2024-03-29T05:17:45;98681.75;;;7.74;72.64
5814;BME280;2933;52.302;8.134;2024-03-29T05:22:46;98692.66;;;7.61;74.66
5814;BME280;2933;52.302;8.134;2024-03-29T05:27:49;98700.53;;;7.49;76.33
5814;BME280;2933;52.302;8.134;2024-03-29T05:32:51;98695.06;;;7.37;77.58
5814;BME280;2933;52.302;8.134;2024-03-29T05:37:53;98676.56;;;7.23;79.14
5814;BME280;2933;52.302;8.134;2024-03-29T05:42:56;98685.97;;;7.21;80.33
5814;BME280;2933;52.302;8.134;2024-03-29T05:47:58;98708.59;;;7.15;81.78
5814;BME280;2933;52.302;8.134;2024-03-29T05:53:00;98700.91;;;7.13;82.19
5814;BME280;2933;52.302;8.134;2024-03-29T05:58:04;98682.09;;;7.10;82.92
5814;BME280;2933;52.302;8.134;2024-03-29T06:03:06;98695.56;;;7.05;83.33
5814;BME280;2933;52.302;8.134;2024-03-29T06:08:08;98696.38;;;6.96;83.45
5814;BME280;2933;52.302;8.134;2024-03-29T06:13:11;98668.59;;;6.97;84.44
5814;BME280;2933;52.302;8.134;2024-03-29T06:18:28;98677.41;;;6.89;85.21
5814;BME280;2933;52.302;8.134;2024-03-29T06:23:29;98665.78;;;6.85;85.65
5814;BME280;2933;52.302;8.134;2024-03-29T06:28:32;98635.50;;;6.81;85.97
5814;BME280;2933;52.302;8.134;2024-03-29T06:33:34;98618.53;;;6.86;86.14
5814;BME280;2933;52.302;8.134;2024-03-29T06:38:36;98642.09;;;6.84;86.27
5814;BME280;2933;52.302;8.134;2024-03-29T06:43:41;98628.56;;;6.89;86.92
5814;BME280;2933;52.302;8.134;2024-03-29T06:48:44;98637.22;;;6.86;87.13
5814;BME280;2933;52.302;8.134;2024-03-29T06:53:45;98627.47;;;6.81;86.78
5814;BME280;2933;52.302;8.134;2024-03-29T06:58:48;98631.72;;;6.82;86.59
5814;BME280;2933;52.302;8.134;2024-03-29T07:03:50;98617.09;;;6.88;86.96
5814;BME280;2933;52.302;8.134;2024-03-29T07:08:52;98636.91;;;6.87;87.39
5814;BME280;2933;52.302;8.134;2024-03-29T07:13:55;98635.31;;;6.86;86.83
5814;BME280;2933;52.302;8.134;2024-03-29T07:18:56;98613.97;;;6.86;87.46
5814;BME280;2933;52.302;8.134;2024-03-29T07:23:58;98612.41;;;6.85;86.99
5814;BME280;2933;52.302;8.134;2024-03-29T07:29:01;98609.75;;;6.85;86.82
5814;BME280;2933;52.302;8.134;2024-03-29T07:34:05;98595.75;;;6.88;87.11
5814;BME280;2933;52.302;8.134;2024-03-29T07:39:07;98592.47;;;6.91;86.57
5814;BME280;2933;52.302;8.134;2024-03-29T07:44:10;98594.34;;;6.91;86.66
5814;BME280;2933;52.302;8.134;2024-03-29T07:49:12;98590.69;;;7.04;86.50
5814;BME280;2933;52.302;8.134;2024-03-29T07:54:13;98586.81;;;7.02;85.78
5814;BME280;2933;52.302;8.134;2024-03-29T07:59:16;98594.16;;;7.05;85.40
5814;BME280;2933;52.302;8.134;2024-03-29T08:04:20;98580.34;;;7.03;85.46
5814;BME280;2933;52.302;8.134;2024-03-29T08:09:21;98577.69;;;7.03;86.14
5814;BME280;2933;52.302;8.134;2024-03-29T08:14:25;98597.59;;;7.14;85.25
5814;BME280;2933;52.302;8.134;2024-03-29T08:19:28;98609.22;;;7.18;85.83
5814;BME280;2933;52.302;8.134;2024-03-29T08:24:29;98614.03;;;7.33;85.75
5814;BME280;2933;52.302;8.134;2024-03-29T08:29:32;98614.50;;;7.35;85.75
5814;BME280;2933;52.302;8.134;2024-03-29T08:34:34;98618.56;;;7.41;85.77
5814;BME280;2933;52.302;8.134;2024-03-29T08:39:36;98610.66;;;7.53;84.85
5814;BME280;2933;52.302;8.134;2024-03-29T08:44:39;98603.66;;;7.69;83.44
5814;BME280;2933;52.302;8.134;2024-03-29T08:49:41;98613.53;;;7.77;83.90
5814;BME280;2933;52.302;8.134;2024-03-29T08:54:43;98607.91;;;7.99;83.24
5814;BME280;2933;52.302;8.134;2024-03-29T08:59:46;98580.69;;;8.26;83.85
5814;BME280;2933;52.302;8.134;2024-03-29T09:04:47;98597.97;;;8.49;81.39
5814;BME280;2933;52.302;8.134;2024-03-29T09:09:49;98593.00;;;8.81;80.58
5814;BME280;2933;52.302;8.134;2024-03-29T09:14:52;98583.75;;;8.90;79.92
5814;BME280;2933;52.302;8.134;2024-03-29T09:19:54;98580.56;;;9.09;80.91
5814;BME280;2933;52.302;8.134;2024-03-29T09:24:55;98573.34;;;9.21;77.92
5814;BME280;2933;52.302;8.134;2024-03-29T09:29:58;98589.34;;;9.42;79.35
5814;BME280;2933;52.302;8.134;2024-03-29T09:35:00;98583.19;;;9.78;77.78
5814;BME280;2933;52.302;8.134;2024-03-29T09:40:03;98599.50;;;9.97;76.24
5814;BME280;2933;52.302;8.134;2024-03-29T09:45:07;98598.94;;;10.03;77.00
5814;BME280;2933;52.302;8.134;2024-03-29T09:50:09;98602.72;;;9.90;76.98
5814;BME280;2933;52.302;8.134;2024-03-29T09:55:13;98596.91;;;9.88;78.25
5814;BME280;2933;52.302;8.134;2024-03-29T10:00:18;98616.81;;;9.75;77.90
5814;BME280;2933;52.302;8.134;2024-03-29T10:05:20;98613.91;;;9.68;77.98
5814;BME280;2933;52.302;8.134;2024-03-29T10:10:23;98620.84;;;9.69;78.29
5814;BME280;2933;52.302;8.134;2024-03-29T10:15:28;98625.19;;;9.62;79.62
5814;BME280;2933;52.302;8.134;2024-03-29T10:20:29;98629.31;;;9.71;79.80
5814;BME280;2933;52.302;8.134;2024-03-29T10:25:32;98632.69;;;9.80;79.96
5814;BME280;2933;52.302;8.134;2024-03-29T10:30:36;98634.00;;;9.98;78.85
5814;BME280;2933;52.302;8.134;2024-03-29T10:35:42;98629.53;;;10.02;79.15
5814;BME280;2933;52.302;8.134;2024-03-29T10:40:44;98618.16;;;10.05;79.24
5814;BME280;2933;52.302;8.134;2024-03-29T10:45:48;98637.16;;;10.12;80.30
5814;BME280;2933;52.302;8.134;2024-03-29T10:50:53;98637.84;;;10.21;79.96
5814;BME280;2933;52.302;8.134;2024-03-29T10:55:57;98662.63;;;10.18;80.14
5814;BME280;2933;52.302;8.134;2024-03-29T11:01:01;98686.78;;;10.18;82.04
5814;BME280;2933;52.302;8.134;2024-03-29T11:06:05;98692.72;;;10.12;82.84
5814;BME280;2933;52.302;8.134;2024-03-29T11:11:07;98679.16;;;9.96;84.33
5814;BME280;2933;52.302;8.134;2024-03-29T11:16:12;98667.53;;;9.92;85.71
5814;BME280;2933;52.302;8.134;2024-03-29T11:21:14;98671.78;;;9.93;86.57
5814;BME280;2933;52.302;8.134;2024-03-29T11:26:19;98668.66;;;9.91;86.48
5814;BME280;2933;52.302;8.134;2024-03-29T11:31:24;98669.69;;;10.11;85.96
5814;BME280;2933;52.302;8.134;2024-03-29T11:36:28;98663.84;;;10.33;85.73
5814;BME280;2933;52.302;8.134;2024-03-29T11:41:31;98662.59;;;10.43;84.60
5814;BME280;2933;52.302;8.134;2024-03-29T11:46:35;98669.41;;;10.52;84.47
5814;BME280;2933;52.302;8.134;2024-03-29T11:51:37;98674.88;;;10.68;84.85
5814;BME280;2933;52.302;8.134;2024-03-29T11:56:39;98687.56;;;10.83;83.00
5814;BME280;2933;52.302;8.134;2024-03-29T12:01:42;98698.06;;;10.88;82.92
5814;BME280;2933;52.302;8.134;2024-03-29T12:06:44;98700.53;;;10.93;82.40
5814;BME280;2933;52.302;8.134;2024-03-29T12:11:47;98680.06;;;10.88;82.54
5814;BME280;2933;52.302;8.134;2024-03-29T12:16:51;98687.84;;;11.05;80.96
5814;BME280;2933;52.302;8.134;2024-03-29T12:21:55;98702.09;;;11.21;80.41
5814;BME280;2933;52.302;8.134;2024-03-29T12:26:57;98707.34;;;11.73;79.61
5814;BME280;2933;52.302;8.134;2024-03-29T12:32:01;98712.47;;;11.78;78.78
5814;BME280;2933;52.302;8.134;2024-03-29T12:37:03;98716.72;;;11.79;78.65
5814;BME280;2933;52.302;8.134;2024-03-29T12:42:05;98737.22;;;11.99;78.53
5814;BME280;2933;52.302;8.134;2024-03-29T12:47:08;98723.44;;;12.01;72.73
5814;BME280;2933;52.302;8.134;2024-03-29T12:52:10;98739.72;;;11.92;73.47
5814;BME280;2933;52.302;8.134;2024-03-29T12:57:12;98744.47;;;11.83;72.77
5814;BME280;2933;52.302;8.134;2024-03-29T13:02:15;98762.47;;;11.95;73.51
5814;BME280;2933;52.302;8.134;2024-03-29T13:07:16;98751.19;;;12.05;72.50
5814;BME280;2933;52.302;8.134;2024-03-29T13:12:18;98766.47;;;12.17;71.44
5814;BME280;2933;52.302;8.134;2024-03-29T13:17:21;98749.28;;;12.21;71.10
5814;BME280;2933;52.302;8.134;2024-03-29T13:22:23;98743.91;;;12.37;70.23
5814;BME280;2933;52.302;8.134;2024-03-29T13:27:25;98738.59;;;12.75;70.70
5814;BME280;2933;52.302;8.134;2024-03-29T13:32:28;98730.88;;;12.92;68.11
5814;BME280;2933;52.302;8.134;2024-03-29T13:37:32;98724.88;;;12.99;69.33
5814;BME280;2933;52.302;8.134;2024-03-29T13:42:34;98744.34;;;13.46;67.71
5814;BME280;2933;52.302;8.134;2024-03-29T13:47:38;98749.00;;;13.68;65.83
5814;BME280;2933;52.302;8.134;2024-03-29T13:52:41;98751.56;;;13.42;66.83
5814;BME280;2933;52.302;8.134;2024-03-29T13:57:43;98756.34;;;13.30;67.69
5814;BME280;2933;52.302;8.134;2024-03-29T14:02:46;98768.25;;;13.10;67.45
5814;BME280;2933;52.302;8.134;2024-03-29T14:07:48;98769.88;;;12.79;69.24
5814;BME280;2933;52.302;8.134;2024-03-29T14:12:50;98771.91;;;12.67;67.94
5814;BME280;2933;52.302;8.134;2024-03-29T14:17:55;98776.84;;;12.65;69.04
5814;BME280;2933;52.302;8.134;2024-03-29T14:22:57;98787.53;;;12.61;69.71
5814;BME280;2933;52.302;8.134;2024-03-29T14:28:05;98774.47;;;12.79;73.84
5814;BME280;2933;52.302;8.134;2024-03-29T14:33:08;98757.94;;;12.96;72.64
5814;BME280;2933;52.302;8.134;2024-03-29T14:38:10;98767.84;;;12.92;72.62
5814;BME280;2933;52.302;8.134;2024-03-29T14:43:15;98775.97;;;13.11;72.02
5814;BME280;2933;52.302;8.134;2024-03-29T14:48:18;98759.63;;;13.20;72.14
5814;BME280;2933;52.302;8.134;2024-03-29T14:53:19;98777.63;;;13.16;72.88
5814;BME280;2933;52.302;8.134;2024-03-29T14:58:21;98749.81;;;13.12;71.47
5814;BME280;2933;52.302;8.134;2024-03-29T15:03:24;98762.88;;;13.10;72.03
5814;BME280;2933;52.302;8.134;2024-03-29T15:08:26;98777.50;;;12.93;73.27
5814;BME280;2933;52.302;8.134;2024-03-29T15:13:29;98764.00;;;12.93;73.28
5814;BME280;2933;52.302;8.134;2024-03-29T15:18:32;98764.88;;;12.97;74.37
5814;BME280;2933;52.302;8.134;2024-03-29T15:23:33;98774.16;;;13.15;72.78
5814;BME280;2933;52.302;8.134;2024-03-29T15:28:36;98755.28;;;13.15;71.79
5814;BME280;2933;52.302;8.134;2024-03-29T15:33:57;98765.38;;;13.18;72.01
5814;BME280;2933;52.302;8.134;2024-03-29T15:38:59;98782.97;;;13.12;71.82
5814;BME280;2933;52.302;8.134;2024-03-29T15:44:06;98791.56;;;13.02;72.33
5814;BME280;2933;52.302;8.134;2024-03-29T15:49:09;98793.66;;;12.93;72.13
5814;BME280;2933;52.302;8.134;2024-03-29T15:54:11;98796.91;;;12.83;70.94
5814;BME280;2933;52.302;8.134;2024-03-29T15:59:16;98813.78;;;12.80;70.56
5814;BME280;2933;52.302;8.134;2024-03-29T16:04:20;98799.34;;;12.88;69.61
5814;BME280;2933;52.302;8.134;2024-03-29T16:09:21;98799.88;;;12.78;69.96
5814;BME280;2933;52.302;8.134;2024-03-29T16:14:23;98818.66;;;12.74;70.22
5814;BME280;2933;52.302;8.134;2024-03-29T16:19:27;98808.91;;;12.70;70.15
5814;BME280;2933;52.302;8.134;2024-03-29T16:24:29;98807.66;;;12.83;69.02
5814;BME280;2933;52.302;8.134;2024-03-29T16:29:30;98808.22;;;12.73;69.31
5814;BME280;2933;52.302;8.134;2024-03-29T16:34:33;98817.34;;;12.68;70.23
5814;BME280;2933;52.302;8.134;2024-03-29T16:39:35;98808.84;;;12.66;70.19
5814;BME280;2933;52.302;8.134;2024-03-29T16:44:38;98823.00;;;12.63;70.32
5814;BME280;2933;52.302;8.134;2024-03-29T16:49:41;98834.22;;;12.50;70.76
5814;BME280;2933;52.302;8.134;2024-03-29T16:54:43;98845.50;;;12.55;71.19
5814;BME280;2933;52.302;8.134;2024-03-29T16:59:44;98845.22;;;12.45;71.63
5814;BME280;2933;52.302;8.134;2024-03-29T17:04:49;98858.44;;;12.50;71.85
5814;BME280;2933;52.302;8.134;2024-03-29T17:09:51;98868.84;;;12.36;72.46
5814;BME280;2933;52.302;8.134;2024-03-29T17:14:52;98862.97;;;12.46;71.97
5814;BME280;2933;52.302;8.134;2024-03-29T17:19:56;98853.56;;;12.40;72.49
5814;BME280;2933;52.302;8.134;2024-03-29T17:24:58;98866.59;;;12.38;72.39
5814;BME280;2933;52.302;8.134;2024-03-29T17:30:00;98863.22;;;12.41;72.50
5814;BME280;2933;52.302;8.134;2024-03-29T17:35:04;98861.06;;;12.31;73.30
5814;BME280;2933;52.302;8.134;2024-03-29T17:40:06;98875.97;;;12.28;72.79
5814;BME280;2933;52.302;8.134;2024-03-29T17:45:08;98879.16;;;12.18;72.98
5814;BME280;2933;52.302;8.134;2024-03-29T17:50:12;98894.44;;;12.14;73.05
5814;BME280;2933;52.302;8.134;2024-03-29T17:55:13;98910.50;;;12.10;73.81
5814;BME280;2933;52.302;8.134;2024-03-29T18:00:16;98900.22;;;12.00;73.82
5814;BME280;2933;52.302;8.134;2024-03-29T18:05:19;98894.94;;;12.04;73.19
5814;BME280;2933;52.302;8.134;2024-03-29T18:10:22;98879.50;;;12.01;73.87
5814;BME280;2933;52.302;8.134;2024-03-29T18:15:23;98895.97;;;11.99;73.90
5814;BME280;2933;52.302;8.134;2024-03-29T18:20:27;98900.47;;;11.95;74.02
5814;BME280;2933;52.302;8.134;2024-03-29T18:25:31;98898.47;;;11.92;74.44
5814;BME280;2933;52.302;8.134;2024-03-29T18:31:06;98901.06;;;11.89;74.28
5814;BME280;2933;52.302;8.134;2024-03-29T18:36:35;98902.69;;;11.66;76.26
5814;BME280;2933;52.302;8.134;2024-03-29T18:41:48;98898.72;;;11.75;75.40
5814;BME280;2933;52.302;8.134;2024-03-29T18:48:53;98923.38;;;11.77;75.17
5814;BME280;2933;52.302;8.134;2024-03-29T18:52:46;98921.94;;;11.80;74.87
5814;BME280;2933;52.302;8.134;2024-03-29T18:57:48;98930.75;;;11.92;73.90
5814;BME280;2933;52.302;8.134;2024-03-29T19:02:49;98929.50;;;11.90;73.75
5814;BME280;2933;52.302;8.134;2024-03-29T19:07:52;98930.13;;;11.71;74.79
5814;BME280;2933;52.302;8.134;2024-03-29T19:12:54;98927.88;;;11.73;74.42
5814;BME280;2933;52.302;8.134;2024-03-29T19:17:56;98932.38;;;11.69;74.13
5814;BME280;2933;52.302;8.134;2024-03-29T19:22:59;98931.44;;;11.65;74.17
5814;BME280;2933;52.302;8.134;2024-03-29T19:28:01;98963.53;;;11.70;73.78
5814;BME280;2933;52.302;8.134;2024-03-29T19:33:04;98967.09;;;11.62;74.62
5814;BME280;2933;52.302;8.134;2024-03-29T19:38:07;98964.97;;;11.56;74.23
5814;BME280;2933;52.302;8.134;2024-03-29T19:43:08;98972.50;;;11.50;74.79
5814;BME280;2933;52.302;8.134;2024-03-29T19:48:11;98972.16;;;11.40;74.75
5814;BME280;2933;52.302;8.134;2024-03-29T19:53:15;98970.72;;;11.18;75.27
5814;BME280;2933;52.302;8.134;2024-03-29T19:58:16;98973.75;;;11.16;75.76
5814;BME280;2933;52.302;8.134;2024-03-29T20:03:19;98973.41;;;11.18;75.39
5814;BME280;2933;52.302;8.134;2024-03-29T20:08:22;98953.94;;;11.09;76.58
5814;BME280;2933;52.302;8.134;2024-03-29T20:13:26;98963.53;;;10.98;76.52
5814;BME280;2933;52.302;8.134;2024-03-29T20:18:28;98940.03;;;10.95;76.32
5814;BME280;2933;52.302;8.134;2024-03-29T20:23:34;98939.16;;;11.03;76.04
5814;BME280;2933;52.302;8.134;2024-03-29T20:28:36;98941.13;;;10.94;77.01
5814;BME280;2933;52.302;8.134;2024-03-29T20:33:39;98971.91;;;10.84;77.95
5814;BME280;2933;52.302;8.134;2024-03-29T20:38:43;98996.00;;;10.93;77.31
5814;BME280;2933;52.302;8.134;2024-03-29T20:43:59;99001.91;;;10.86;77.19
5814;BME280;2933;52.302;8.134;2024-03-29T20:49:32;99008.28;;;10.82;78.15
5814;BME280;2933;52.302;8.134;2024-03-29T21:06:02;99015.03;;;11.00;76.44
5814;BME280;2933;52.302;8.134;2024-03-29T21:11:16;99010.31;;;10.85;77.17
5814;BME280;2933;52.302;8.134;2024-03-29T21:16:18;98997.53;;;10.70;77.95
5814;BME280;2933;52.302;8.134;2024-03-29T21:21:22;99019.00;;;10.70;78.11
5814;BME280;2933;52.302;8.134;2024-03-29T21:26:25;99030.28;;;10.63;78.37
5814;BME280;2933;52.302;8.134;2024-03-29T21:31:27;99039.84;;;10.52;79.54
5814;BME280;2933;52.302;8.134;2024-03-29T21:36:31;99057.41;;;10.50;78.78
5814;BME280;2933;52.302;8.134;2024-03-29T21:41:41;99060.38;;;10.69;77.71
5814;BME280;2933;52.302;8.134;2024-03-29T21:46:43;99067.13;;;10.75;77.40
5814;BME280;2933;52.302;8.134;2024-03-29T21:51:46;99051.69;;;10.72;77.27
5814;BME280;2933;52.302;8.134;2024-03-29T21:56:53;99052.00;;;10.70;76.73
5814;BME280;2933;52.302;8.134;2024-03-29T22:01:55;99040.94;;;10.72;77.22
5814;BME280;2933;52.302;8.134;2024-03-29T22:06:59;99042.56;;;10.64;76.45
5814;BME280;2933;52.302;8.134;2024-03-29T22:12:01;99046.50;;;10.67;77.04
5814;BME280;2933;52.302;8.134;2024-03-29T22:17:03;99048.03;;;10.56;77.88
5814;BME280;2933;52.302;8.134;2024-03-29T22:22:06;99051.88;;;10.46;78.33
5814;BME280;2933;52.302;8.134;2024-03-29T22:27:08;99030.97;;;10.39;78.91
5814;BME280;2933;52.302;8.134;2024-03-29T22:32:10;99025.59;;;10.39;79.02
5814;BME280;2933;52.302;8.134;2024-03-29T22:37:15;99031.84;;;10.31;79.30
5814;BME280;2933;52.302;8.134;2024-03-29T22:42:17;99047.34;;;10.26;79.81
5814;BME280;2933;52.302;8.134;2024-03-29T22:47:19;99040.91;;;10.18;80.17
5814;BME280;2933;52.302;8.134;2024-03-29T22:52:22;99045.53;;;10.09;80.72
5814;BME280;2933;52.302;8.134;2024-03-29T22:57:24;99071.28;;;10.10;81.41
5814;BME280;2933;52.302;8.134;2024-03-29T23:02:26;99086.84;;;10.17;80.52
5814;BME280;2933;52.302;8.134;2024-03-29T23:07:29;99118.59;;;10.06;80.82
5814;BME280;2933;52.302;8.134;2024-03-29T23:12:31;99126.84;;;10.01;81.66
5814;BME280;2933;52.302;8.134;2024-03-29T23:17:47;99132.84;;;9.98;81.43
5814;BME280;2933;52.302;8.134;2024-03-29T23:22:53;99130.09;;;9.86;82.64
5814;BME280;2933;52.302;8.134;2024-03-29T23:27:58;99111.63;;;9.85;83.01
5814;BME280;2933;52.302;8.134;2024-03-29T23:33:00;99115.31;;;9.80;83.05
5814;BME280;2933;52.302;8.134;2024-03-29T23:38:04;99127.25;;;9.83;82.21
5814;BME280;2933;52.302;8.134;2024-03-29T23:43:07;99144.81;;;9.80;82.83
5814;BME280;2933;52.302;8.134;2024-03-29T23:48:09;99141.47;;;9.83;83.26
5814;BME280;2933;52.302;8.134;2024-03-29T23:53:12;99137.53;;;9.81;83.55
5814;BME280;2933;52.302;8.134;2024-03-29T23:58:14;99154.84;;;9.92;82.75
